Time;durP1;ratioP1;P1;durP2;ratioP2;P2;SDS_P1;SDS_P2;PMS_P1;PMS_P2;Temp;Humidity;BMP_temperature;BMP_pressure;BME280_temperature;BME280_humidity;BME280_pressure;Samples;Min_cycle;Max_cycle;Signal;HPM_P1;HPM_P2
2023/05/05 00:00:19;;;;;;;31.17;17.52;;;;;;;11.26;nan;101011.06;4920399;29;20036;-75
2023/05/05 00:02:45;;;;;;;32.13;17.38;;;;;;;11.34;nan;101025.00;4917569;29;20025;-74
2023/05/05 00:05:11;;;;;;;37.55;18.25;;;;;;;11.28;nan;101014.28;4918740;29;20072;-74
2023/05/05 00:07:36;;;;;;;31.92;17.92;;;;;;;11.28;nan;101022.19;4920661;29;20031;-74
2023/05/05 00:10:02;;;;;;;30.05;17.10;;;;;;;11.29;nan;101013.25;4935224;28;20122;-74
2023/05/05 00:12:27;;;;;;;32.17;16.95;;;;;;;11.29;nan;101021.16;4919914;29;20110;-73
2023/05/05 00:14:52;;;;;;;30.58;16.98;;;;;;;11.29;nan;101021.16;4919802;29;20140;-73
2023/05/05 00:17:18;;;;;;;33.05;16.98;;;;;;;11.21;nan;101012.72;4920811;29;20046;-73
2023/05/05 00:19:43;;;;;;;28.77;16.40;;;;;;;11.15;nan;101005.66;4918449;29;20095;-72
2023/05/05 00:22:08;;;;;;;29.67;16.40;;;;;;;11.15;nan;101006.47;4920375;29;20406;-73
2023/05/05 00:24:34;;;;;;;24.73;15.35;;;;;;;11.18;nan;101010.50;4917930;29;20042;-73
2023/05/05 00:27:01;;;;;;;26.63;15.60;;;;;;;11.21;nan;101016.16;4924603;29;20028;-72
2023/05/05 00:29:26;;;;;;;30.92;16.95;;;;;;;11.17;nan;101012.34;4918177;29;20102;-74
2023/05/05 00:31:52;;;;;;;34.33;17.63;;;;;;;11.11;nan;101015.00;4919505;29;20430;-73
2023/05/05 00:34:17;;;;;;;32.00;18.08;;;;;;;11.13;nan;101024.31;4919511;29;20068;-72
2023/05/05 00:36:43;;;;;;;34.20;18.77;;;;;;;11.03;nan;101011.59;4926176;29;20020;-73
2023/05/05 00:39:08;;;;;;;31.05;18.85;;;;;;;10.88;nan;100989.22;4915806;29;20808;-74
2023/05/05 00:41:34;;;;;;;32.85;18.75;;;;;;;10.96;nan;101010.84;4925827;29;20095;-73
2023/05/05 00:44:00;;;;;;;32.85;19.05;;;;;;;10.89;nan;100998.72;4919759;29;20035;-73
2023/05/05 00:46:28;;;;;;;25.92;16.50;;;;;;;10.98;nan;101021.19;4921059;29;20031;-73
2023/05/05 00:48:53;;;;;;;27.63;15.77;;;;;;;10.87;nan;101001.59;4921470;29;20119;-73
2023/05/05 00:51:20;;;;;;;24.45;15.27;;;;;;;10.94;nan;101020.81;4925511;29;20118;-73
2023/05/05 00:53:46;;;;;;;27.58;14.55;;;;;;;10.89;nan;101011.91;4923157;29;20719;-74
2023/05/05 00:56:12;;;;;;;24.38;13.50;;;;;;;10.81;nan;101005.88;4919302;29;20519;-74
2023/05/05 00:58:40;;;;;;;25.08;13.93;;;;;;;10.80;nan;101006.91;4920171;29;20098;-73
2023/05/05 01:01:05;;;;;;;22.33;12.80;;;;;;;10.78;nan;101008.94;4921727;29;20635;-74
2023/05/05 01:03:31;;;;;;;21.02;12.75;;;;;;;10.74;nan;101006.94;4922587;29;20118;-74
2023/05/05 01:06:05;;;;;;;23.65;12.35;;;;;;;10.74;nan;101013.00;4924727;29;20048;-73
2023/05/05 01:08:50;;;;;;;17.17;10.40;;;;;;;10.50;nan;100982.94;4923028;29;20566;-74
2023/05/05 01:11:27;;;;;;;16.92;10.20;;;;;;;10.70;nan;101008.34;4922151;29;20044;-73
2023/05/05 01:14:10;;;;;;;15.50;9.95;;;;;;;10.64;nan;101013.44;4922743;29;20028;-73
2023/05/05 01:16:40;;;;;;;16.23;10.30;;;;;;;10.52;nan;100993.25;4920250;29;20032;-75
2023/05/05 01:19:27;;;;;;;13.55;9.68;;;;;;;10.42;nan;100991.88;4918070;29;20059;-72
2023/05/05 01:21:59;;;;;;;20.00;11.60;;;;;;;10.45;nan;101003.03;4929104;29;20020;-74
2023/05/05 01:24:27;;;;;;;20.52;12.52;;;;;;;10.24;nan;100999.59;4923159;29;20036;-73
2023/05/05 01:26:58;;;;;;;24.45;14.77;;;;;;;10.12;nan;100998.63;4929007;29;20070;-73
2023/05/05 01:29:42;;;;;;;27.63;14.23;;;;;;;10.13;nan;100993.19;4924944;29;20032;-73
2023/05/05 01:32:13;;;;;;;26.27;15.13;;;;;;;10.09;nan;100984.06;4920816;29;20027;-73
2023/05/05 01:35:19;;;;;;;27.80;16.42;;;;;;;10.19;nan;100992.31;4923746;29;20498;-73
2023/05/05 01:37:50;;;;;;;29.58;15.88;;;;;;;10.22;nan;100991.94;4936895;28;20510;-73
2023/05/05 01:40:21;;;;;;;28.40;16.15;;;;;;;10.22;nan;100996.38;4922418;29;20050;-75
2023/05/05 01:42:49;;;;;;;26.92;16.10;;;;;;;10.16;nan;100986.69;4924696;29;20393;-74
2023/05/05 01:45:19;;;;;;;25.75;14.75;;;;;;;10.27;nan;100999.22;4924901;29;20020;-75
2023/05/05 01:47:46;;;;;;;25.15;13.55;;;;;;;10.25;nan;100993.34;4923543;29;20055;-74
2023/05/05 01:50:14;;;;;;;22.25;13.30;;;;;;;10.23;nan;100995.38;4931941;29;20063;-74
2023/05/05 01:52:41;;;;;;;21.48;13.18;;;;;;;10.23;nan;100990.91;4930662;29;20048;-74
2023/05/05 01:55:08;;;;;;;21.90;12.57;;;;;;;10.24;nan;100994.34;4932223;29;20039;-73
2023/05/05 01:57:36;;;;;;;19.60;12.68;;;;;;;10.29;nan;101002.44;4933611;29;20020;-72
2023/05/05 02:00:03;;;;;;;22.70;12.35;;;;;;;10.26;nan;101007.31;4935743;29;20031;-73
2023/05/05 02:02:30;;;;;;;24.65;12.50;;;;;;;10.21;nan;100990.31;4926096;29;20035;-73
2023/05/05 02:04:57;;;;;;;18.05;11.68;;;;;;;10.22;nan;100977.94;4922497;29;20048;-73
2023/05/05 02:07:24;;;;;;;22.95;12.75;;;;;;;10.23;nan;100982.22;4922316;29;20031;-72
2023/05/05 02:09:50;;;;;;;24.10;12.82;;;;;;;10.18;nan;100979.41;4924926;29;20094;-74
2023/05/05 02:12:18;;;;;;;22.33;13.45;;;;;;;10.18;nan;100985.47;4923955;29;20051;-73
2023/05/05 02:14:45;;;;;;;22.20;13.77;;;;;;;10.18;nan;100990.72;4922982;29;20075;-73
2023/05/05 02:17:12;;;;;;;29.45;15.60;;;;;;;9.98;nan;100977.63;4920484;29;20708;-73
2023/05/05 02:19:40;;;;;;;26.13;15.48;;;;;;;10.00;nan;100994.00;4921268;29;20032;-72
2023/05/05 02:22:06;;;;;;;26.02;16.40;;;;;;;9.96;nan;100991.97;4919600;29;20036;-73
2023/05/05 02:24:32;;;;;;;28.20;15.55;;;;;;;9.91;nan;100981.28;4924742;29;20060;-73
2023/05/05 02:27:01;;;;;;;23.88;14.18;;;;;;;9.93;nan;100982.69;4917177;29;20034;-73
2023/05/05 02:29:43;;;;;;;23.55;14.05;;;;;;;9.87;nan;100961.69;4924329;29;20034;-72
2023/05/05 02:32:15;;;;;;;22.50;13.70;;;;;;;9.89;nan;100972.78;4917416;29;20455;-73
2023/05/05 02:34:45;;;;;;;26.95;14.15;;;;;;;9.95;nan;100985.91;4922446;29;20034;-74
2023/05/05 02:37:15;;;;;;;23.58;13.13;;;;;;;9.90;nan;100988.38;4927814;29;20482;-73
2023/05/05 02:39:46;;;;;;;21.67;13.15;;;;;;;9.88;nan;100984.31;4920024;29;20035;-73
2023/05/05 02:42:17;;;;;;;23.38;12.07;;;;;;;9.81;nan;100992.22;4920837;29;20042;-74
2023/05/05 02:44:44;;;;;;;18.08;11.35;;;;;;;9.66;nan;100986.38;4920776;29;20110;-73
2023/05/05 02:47:09;;;;;;;19.17;12.05;;;;;;;9.56;nan;100982.34;4924483;29;20395;-74
2023/05/05 02:49:35;;;;;;;23.23;13.15;;;;;;;9.56;nan;100982.34;4927086;29;20028;-72
2023/05/05 02:52:01;;;;;;;20.10;12.38;;;;;;;9.52;nan;100980.31;4921957;29;20038;-73
2023/05/05 02:54:27;;;;;;;27.25;12.60;;;;;;;9.44;nan;100976.09;4920569;28;20039;-72
2023/05/05 02:56:54;;;;;;;20.98;13.02;;;;;;;9.46;nan;100981.97;4929688;29;20474;-73
2023/05/05 02:59:22;;;;;;;22.80;14.35;;;;;;;9.41;nan;100983.56;4920149;29;20036;-73
2023/05/05 03:01:59;;;;;;;26.10;15.05;;;;;;;9.34;nan;100975.69;4920146;29;20035;-73
2023/05/05 03:04:28;;;;;;;26.58;16.58;;;;;;;9.33;nan;100974.06;4921554;29;20036;-78
2023/05/05 03:07:02;;;;;;;25.75;15.73;;;;;;;9.30;nan;100974.47;4921901;29;20035;-78
2023/05/05 03:09:31;;;;;;;27.27;16.08;;;;;;;9.31;nan;100976.06;4925465;29;20031;-78
2023/05/05 03:12:02;;;;;;;25.73;16.30;;;;;;;9.25;nan;100967.19;4923306;29;20023;-78
2023/05/05 03:14:33;;;;;;;22.02;13.85;;;;;;;9.25;nan;100969.81;4924904;29;20035;-78
2023/05/05 03:17:00;;;;;;;18.00;10.98;;;;;;;9.31;nan;100971.66;4924217;29;20039;-78
2023/05/05 03:19:27;;;;;;;19.25;10.55;;;;;;;9.38;nan;100987.41;4924020;29;20765;-78
2023/05/05 03:21:53;;;;;;;15.07;9.65;;;;;;;9.34;nan;100984.38;4937118;28;20494;-77
2023/05/05 03:24:20;;;;;;;19.10;11.80;;;;;;;9.37;nan;100993.69;4922946;29;20031;-77
2023/05/05 03:26:46;;;;;;;23.48;14.32;;;;;;;9.32;nan;100986.41;4923096;29;20036;-76
2023/05/05 03:29:13;;;;;;;28.30;16.05;;;;;;;9.30;nan;100990.25;4928940;29;20410;-77
2023/05/05 03:31:39;;;;;;;31.88;16.65;;;;;;;9.26;nan;101000.31;4921095;29;20031;-77
2023/05/05 03:34:06;;;;;;;27.55;16.92;;;;;;;9.25;nan;101001.34;4915919;29;20107;-80
2023/05/05 03:36:31;;;;;;;26.20;16.40;;;;;;;9.19;nan;100989.00;4924909;29;20631;-78
2023/05/05 03:38:57;;;;;;;31.20;16.38;;;;;;;9.19;nan;100991.63;4922336;29;20105;-79
2023/05/05 03:41:23;;;;;;;30.00;15.55;;;;;;;9.14;nan;100996.69;4928070;29;20034;-78
2023/05/05 03:43:49;;;;;;;26.48;15.55;;;;;;;9.17;nan;101009.44;4919648;29;20040;-77
2023/05/05 03:46:15;;;;;;;26.70;15.18;;;;;;;9.11;nan;101003.16;4919889;29;20870;-79
2023/05/05 03:48:41;;;;;;;28.02;16.42;;;;;;;9.11;nan;101013.66;4922149;29;20031;-76
2023/05/05 03:51:07;;;;;;;24.70;15.65;;;;;;;8.99;nan;100996.88;4925296;29;20028;-79
2023/05/05 03:53:33;;;;;;;24.35;15.77;;;;;;;8.96;nan;101001.72;4920083;29;20497;-77
2023/05/05 03:55:58;;;;;;;23.35;15.07;;;;;;;8.97;nan;101009.38;4920099;29;20042;-77
2023/05/05 03:58:24;;;;;;;28.77;16.30;;;;;;;8.88;nan;101003.53;4930037;29;20063;-80
2023/05/05 04:00:49;;;;;;;34.95;16.92;;;;;;;8.93;nan;101019.50;4928334;29;20067;-79
2023/05/05 04:03:15;;;;;;;30.52;16.02;;;;;;;8.80;nan;101014.19;4924529;29;20118;-78
2023/05/05 04:05:41;;;;;;;29.10;16.33;;;;;;;8.80;nan;101018.66;4925008;29;20052;-75
2023/05/05 04:08:06;;;;;;;30.05;17.25;;;;;;;8.86;nan;101029.19;4923638;29;20059;-75
2023/05/05 04:10:32;;;;;;;35.42;21.60;;;;;;;;;;4921224;29;20039;-73
2023/05/05 04:12:57;;;;;;;27.83;15.93;;;;;;;;;;4921075;29;20376;-75
2023/05/05 04:15:22;;;;;;;28.50;18.00;;;;;;;;;;4919507;29;20372;-75
2023/05/05 04:17:48;;;;;;;33.08;17.00;;;;;;;;;;4923204;29;20027;-74
2023/05/05 04:20:13;;;;;;;28.47;17.20;;;;;;;;;;4922371;29;20106;-74
2023/05/05 04:22:38;;;;;;;28.50;17.52;;;;;;;;;;4927309;29;20039;-74
2023/05/05 04:25:04;;;;;;;26.63;16.90;;;;;;;;;;4922047;29;20031;-75
2023/05/05 04:27:29;;;;;;;30.85;18.35;;;;;;;;;;4919210;29;20285;-75
2023/05/05 04:29:55;;;;;;;30.35;18.83;;;;;;;;;;4921334;29;20039;-75
2023/05/05 04:32:20;;;;;;;33.08;19.50;;;;;;;;;;4913557;29;20127;-75
2023/05/05 04:34:45;;;;;;;34.80;20.93;;;;;;;;;;4919295;29;20036;-73
2023/05/05 04:37:11;;;;;;;36.65;20.90;;;;;;;;;;4924288;29;20641;-75
2023/05/05 04:39:36;;;;;;;36.47;20.67;;;;;;;;;;4921067;29;20493;-74
2023/05/05 04:42:01;;;;;;;41.97;20.50;;;;;;;;;;4920570;29;20702;-75
2023/05/05 04:44:27;;;;;;;41.63;20.75;;;;;;;;;;4919373;29;20530;-75
2023/05/05 04:46:52;;;;;;;44.20;22.57;;;;;;;;;;4918124;29;20462;-75
2023/05/05 04:49:17;;;;;;;41.55;22.50;;;;;;;;;;4919807;29;20346;-75
2023/05/05 04:51:42;;;;;;;52.57;24.17;;;;;;;;;;4919544;29;20027;-76
2023/05/05 04:54:08;;;;;;;48.33;24.00;;;;;;;;;;4923391;29;20034;-77
2023/05/05 04:56:33;;;;;;;44.35;24.33;;;;;;;9.52;nan;101048.69;4935179;29;20039;-76
2023/05/05 04:58:58;;;;;;;51.40;26.25;;;;;;;;;;4934634;29;20028;-75
2023/05/05 05:01:24;;;;;;;47.50;25.23;;;;;;;;;;4937309;29;20055;-75
2023/05/05 05:03:49;;;;;;;45.47;25.65;;;;;;;;;;4935538;29;20055;-74
2023/05/05 05:06:15;;;;;;;47.95;26.30;;;;;;;;;;4935907;29;20044;-75
2023/05/05 05:08:41;;;;;;;46.38;25.00;;;;;;;;;;4935035;29;20056;-74
2023/05/05 05:11:06;;;;;;;49.28;26.13;;;;;;;;;;4923863;29;20079;-74
2023/05/05 05:13:31;;;;;;;60.80;27.35;;;;;;;;;;4921434;29;20035;-75
2023/05/05 05:15:56;;;;;;;47.27;24.73;;;;;;;;;;4922950;29;20028;-74
2023/05/05 05:18:22;;;;;;;42.77;24.97;;;;;;;;;;4927263;29;20282;-74
2023/05/05 05:20:47;;;;;;;43.33;24.63;;;;;;;10.96;nan;101128.63;4918268;29;20489;-76
2023/05/05 05:23:13;;;;;;;49.55;25.23;;;;;;;10.59;nan;101057.25;4923940;29;20274;-75
2023/05/05 05:25:38;;;;;;;44.55;25.67;;;;;;;10.68;nan;101060.44;4918188;29;20047;-73
2023/05/05 05:28:03;;;;;;;44.95;24.83;;;;;;;10.64;nan;101041.63;4922964;29;20050;-74
2023/05/05 05:30:29;;;;;;;49.08;26.60;;;;;;;10.86;nan;101061.38;4919402;29;20106;-74
2023/05/05 05:32:54;;;;;;;51.13;27.98;;;;;;;11.02;nan;101072.44;4921111;29;20028;-74
2023/05/05 05:35:19;;;;;;;46.30;26.15;;;;;;;;;;4923339;29;20047;-73
2023/05/05 05:37:46;;;;;;;45.67;26.00;;;;;;;;;;4920563;29;20122;-72
2023/05/05 05:40:12;;;;;;;46.80;25.98;;;;;;;;;;4922426;29;20028;-76
2023/05/05 05:42:38;;;;;;;48.90;26.98;;;;;;;11.41;nan;101052.94;4920415;29;20031;-76
2023/05/05 05:45:05;;;;;;;49.90;27.00;;;;;;;11.52;nan;101051.44;4923260;29;20070;-75
2023/05/05 05:47:30;;;;;;;44.88;26.23;;;;;;;11.64;nan;101052.34;4923234;29;20024;-74
2023/05/05 05:49:55;;;;;;;44.30;25.35;;;;;;;;;;4930409;29;20031;-72
2023/05/05 05:52:21;;;;;;;38.30;23.07;;;;;;;;;;4926745;29;20051;-72
2023/05/05 05:54:46;;;;;;;42.17;23.80;;;;;;;;;;4929268;29;20341;-73
2023/05/05 05:57:11;;;;;;;39.75;22.92;;;;;;;;;;4923415;29;20704;-73
2023/05/05 05:59:36;;;;;;;40.13;24.00;;;;;;;;;;4926230;29;20031;-75
2023/05/05 06:02:03;;;;;;;40.97;23.13;;;;;;;;;;4924315;29;20039;-78
2023/05/05 06:04:29;;;;;;;37.85;23.13;;;;;;;;;;4922443;29;20680;-73
2023/05/05 06:06:54;;;;;;;34.78;21.02;;;;;;;;;;4923988;29;20024;-73
2023/05/05 06:09:20;;;;;;;31.75;20.08;;;;;;;;;;4927430;29;20036;-73
2023/05/05 06:11:45;;;;;;;33.37;19.70;;;;;;;;;;4920894;29;20490;-74
2023/05/05 06:14:10;;;;;;;31.50;19.43;;;;;;;;;;4925341;29;20313;-74
2023/05/05 06:16:36;;;;;;;31.48;19.10;;;;;;;;;;4924742;29;20866;-74
2023/05/05 06:19:01;;;;;;;31.70;18.87;;;;;;;;;;4926628;29;21028;-75
2023/05/05 06:21:26;;;;;;;31.50;17.97;;;;;;;;;;4929062;29;20138;-74
2023/05/05 06:23:51;;;;;;;28.92;18.67;;;;;;;;;;4917494;29;20043;-73
2023/05/05 06:26:17;;;;;;;31.05;18.20;;;;;;;12.98;nan;101078.97;4918355;29;20027;-74
2023/05/05 06:28:42;;;;;;;31.27;19.73;;;;;;;;;;4922731;29;20036;-74
2023/05/05 06:31:07;;;;;;;24.77;16.60;;;;;;;;;;4920896;29;20527;-74
2023/05/05 06:33:33;;;;;;;24.63;16.60;;;;;;;;;;4921555;29;20369;-74
2023/05/05 06:35:58;;;;;;;24.80;16.83;;;;;;;13.23;nan;101090.44;4928921;29;20027;-74
2023/05/05 06:38:23;;;;;;;23.52;15.50;;;;;;;;;;4921466;29;20641;-73
2023/05/05 06:40:49;;;;;;;28.27;17.43;;;;;;;;;;4919783;29;20054;-73
2023/05/05 06:43:15;;;;;;;27.55;17.40;;;;;;;;;;4922955;29;20278;-74
2023/05/05 06:45:40;;;;;;;29.00;18.30;;;;;;;;;;4921149;29;20397;-74
2023/05/05 06:48:05;;;;;;;28.80;18.57;;;;;;;;;;4919912;29;20042;-74
2023/05/05 06:50:30;;;;;;;26.37;16.73;;;;;;;;;;4921238;29;20353;-73
2023/05/05 06:52:56;;;;;;;27.38;18.20;;;;;;;13.71;nan;101066.53;4927938;29;20054;-73
2023/05/05 06:55:22;;;;;;;27.23;16.77;;;;;;;13.96;nan;101084.06;4920484;29;20462;-72
2023/05/05 06:57:47;;;;;;;28.10;18.02;;;;;;;13.91;nan;101068.84;4920972;29;20023;-74
2023/05/05 07:00:13;;;;;;;29.58;17.80;;;;;;;14.16;nan;101086.34;4921790;29;20030;-74
2023/05/05 07:02:40;;;;;;;28.60;16.73;;;;;;;14.13;nan;101069.06;4920532;29;20095;-74
2023/05/05 07:05:06;;;;;;;27.58;17.58;;;;;;;14.21;nan;101067.91;4934370;28;20040;-75
2023/05/05 07:07:31;;;;;;;26.50;16.92;;;;;;;14.24;nan;101054.19;4925277;29;20110;-75
2023/05/05 07:09:57;;;;;;;25.02;17.10;;;;;;;14.47;nan;101070.03;4928625;29;20031;-75
2023/05/05 07:12:22;;;;;;;28.83;16.55;;;;;;;14.58;nan;101071.09;4920826;29;20702;-74
2023/05/05 07:14:49;;;;;;;25.08;16.17;;;;;;;14.51;nan;101054.50;4926002;29;20404;-81
2023/05/05 07:17:15;;;;;;;29.55;16.70;;;;;;;14.50;nan;101052.06;4937989;29;20062;-81
2023/05/05 07:19:40;;;;;;;25.45;16.95;;;;;;;14.62;nan;101029.81;4939425;29;20035;-81
2023/05/05 07:22:06;;;;;;;26.23;16.33;;;;;;;14.65;nan;101018.75;4936916;29;20024;-80
2023/05/05 07:24:31;;;;;;;27.85;16.63;;;;;;;14.94;nan;101063.00;4943057;29;20012;-80
2023/05/05 07:26:56;;;;;;;27.73;16.95;;;;;;;14.94;nan;101055.03;4937136;29;20019;-79
2023/05/05 07:29:22;;;;;;;25.70;16.67;;;;;;;14.98;nan;101049.03;4944023;29;20656;-81
2023/05/05 07:31:47;;;;;;;24.83;15.70;;;;;;;15.01;nan;101053.88;4935012;29;20031;-81
2023/05/05 07:34:12;;;;;;;24.83;17.25;;;;;;;15.04;nan;101048.09;4931329;29;20028;-76
2023/05/05 07:36:38;;;;;;;26.95;16.85;;;;;;;15.06;nan;101050.47;4919812;29;20055;-76
2023/05/05 07:39:03;;;;;;;33.42;18.92;;;;;;;15.20;nan;101058.94;4929355;29;20058;-76
2023/05/05 07:41:29;;;;;;;27.77;18.30;;;;;;;15.35;nan;101069.84;4918965;29;20115;-75
2023/05/05 07:43:54;;;;;;;27.23;17.90;;;;;;;15.40;nan;101061.97;4933253;29;20036;-80
2023/05/05 07:46:20;;;;;;;25.73;16.45;;;;;;;15.36;nan;101049.41;4928252;29;20450;-82
2023/05/05 07:48:45;;;;;;;24.92;16.90;;;;;;;15.48;nan;101061.53;4940593;29;20032;-81
2023/05/05 07:51:11;;;;;;;26.70;17.20;;;;;;;15.59;nan;101062.53;4925552;29;20099;-76
2023/05/05 07:53:36;;;;;;;26.60;16.30;;;;;;;15.67;nan;101063.97;4922515;29;20039;-77
2023/05/05 07:56:02;;;;;;;26.65;16.52;;;;;;;15.56;nan;101033.00;4919836;29;20471;-77
2023/05/05 07:58:27;;;;;;;27.42;16.10;;;;;;;15.67;nan;101042.72;4921779;29;20024;-73
2023/05/05 08:00:53;;;;;;;22.55;16.23;;;;;;;15.70;nan;101040.41;4918983;29;20061;-74
2023/05/05 08:03:20;;;;;;;28.13;16.10;;;;;;;15.80;nan;101047.72;4921272;29;20039;-76
2023/05/05 08:05:45;;;;;;;24.95;16.42;;;;;;;15.85;nan;101045.16;4928977;29;20044;-76
2023/05/05 08:08:11;;;;;;;25.17;16.30;;;;;;;15.80;nan;101033.63;4919194;29;20035;-75
2023/05/05 08:10:36;;;;;;;24.67;16.15;;;;;;;15.92;nan;101045.78;4918855;29;20039;-76
2023/05/05 08:13:02;;;;;;;23.10;14.68;;;;;;;16.05;nan;101041.16;4920526;29;20035;-76
2023/05/05 08:15:27;;;;;;;26.63;16.02;;;;;;;16.11;nan;101050.81;4921275;29;20071;-76
2023/05/05 08:17:54;;;;;;;23.67;14.73;;;;;;;16.12;nan;101044.44;4924997;29;20158;-75
2023/05/05 08:20:20;;;;;;;25.05;15.60;;;;;;;16.22;nan;101041.91;4920112;29;20519;-76
2023/05/05 08:22:46;;;;;;;21.35;14.38;;;;;;;16.34;nan;101053.22;4925872;29;20032;-77
2023/05/05 08:25:13;;;;;;;22.08;15.05;;;;;;;16.37;nan;101036.78;4919236;29;20024;-77
2023/05/05 08:27:39;;;;;;;22.33;13.77;;;;;;;16.46;nan;101039.81;4924764;29;20119;-76
2023/05/05 08:30:06;;;;;;;19.60;13.65;;;;;;;16.53;nan;101045.75;4954533;29;20032;-76
2023/05/05 08:32:32;;;;;;;17.13;12.43;;;;;;;16.58;nan;101047.66;4938959;28;20036;-73
2023/05/05 08:34:57;;;;;;;18.60;12.80;;;;;;;16.63;nan;101036.28;4935553;29;20035;-80
2023/05/05 08:37:23;;;;;;;20.70;13.02;;;;;;;16.77;nan;101050.78;4944738;28;20121;-74
2023/05/05 08:39:48;;;;;;;19.85;14.35;;;;;;;16.82;nan;101047.41;4934793;29;20113;-75
2023/05/05 08:42:14;;;;;;;20.55;13.80;;;;;;;16.80;nan;101024.53;4921848;29;20171;-76
2023/05/05 08:44:40;;;;;;;21.60;14.20;;;;;;;16.94;nan;101030.25;4925729;29;20032;-74
2023/05/05 08:47:09;;;;;;;21.52;13.55;;;;;;;17.07;nan;101038.88;4922758;29;20027;-75
2023/05/05 08:49:45;;;;;;;17.88;13.23;;;;;;;17.05;nan;101033.81;4920852;29;20064;-75
2023/05/05 08:52:17;;;;;;;18.77;12.43;;;;;;;17.05;nan;101028.50;4921381;29;20103;-72
2023/05/05 08:54:55;;;;;;;21.40;13.65;;;;;;;16.98;nan;101019.91;4920633;29;20035;-71
2023/05/05 08:57:30;;;;;;;18.75;13.00;;;;;;;17.03;nan;101025.28;4923002;29;20130;-75
2023/05/05 08:59:57;;;;;;;18.25;11.90;;;;;;;16.97;nan;101008.44;4920973;29;20124;-74
2023/05/05 09:02:27;;;;;;;18.45;12.65;;;;;;;17.27;nan;101039.06;4917543;29;20039;-75
2023/05/05 09:04:52;;;;;;;17.55;12.07;;;;;;;17.31;nan;101026.84;4924159;29;20063;-72
2023/05/05 09:07:18;;;;;;;19.58;12.70;;;;;;;17.32;nan;101019.66;4920989;29;20120;-75
2023/05/05 09:09:44;;;;;;;17.20;12.02;;;;;;;17.45;nan;101027.19;4924109;29;20028;-80
2023/05/05 09:12:10;;;;;;;17.63;11.60;;;;;;;17.54;nan;101027.53;4922310;29;20032;-76
2023/05/05 09:14:35;;;;;;;19.58;11.95;;;;;;;17.45;nan;101000.56;4925186;29;20059;-78
2023/05/05 09:17:02;;;;;;;18.80;12.57;;;;;;;17.74;nan;101029.53;4925007;29;20435;-73
2023/05/05 09:19:27;;;;;;;18.33;12.43;;;;;;;17.71;nan;101006.88;4921072;29;20597;-71
2023/05/05 09:21:53;;;;;;;18.80;11.48;;;;;;;17.86;nan;101024.84;4924567;29;20075;-72
2023/05/05 09:24:19;;;;;;;18.33;11.05;;;;;;;17.93;nan;101017.41;4922764;29;20486;-71
2023/05/05 09:26:46;;;;;;;14.50;10.02;;;;;;;17.91;nan;101000.06;4924940;29;20475;-75
2023/05/05 09:29:19;;;;;;;12.77;9.68;;;;;;;18.05;nan;101012.69;4925834;29;20032;-76
2023/05/05 09:32:04;;;;;;;14.95;10.25;;;;;;;18.11;nan;101010.84;4929564;29;20046;-74
2023/05/05 09:34:31;;;;;;;16.05;10.18;;;;;;;18.10;nan;100992.44;4936896;28;20997;-76
2023/05/05 09:36:56;;;;;;;18.92;10.52;;;;;;;18.14;nan;100990.88;4922128;29;20028;-75
2023/05/05 09:39:22;;;;;;;15.32;10.30;;;;;;;18.34;nan;101004.28;4929867;29;20663;-75
2023/05/05 09:41:47;;;;;;;14.70;10.45;;;;;;;18.34;nan;100985.63;4938349;28;20076;-75
2023/05/05 09:44:15;;;;;;;16.02;10.20;;;;;;;18.46;nan;100996.84;4923772;29;20082;-72
2023/05/05 09:46:51;;;;;;;13.88;10.60;;;;;;;18.43;nan;100994.69;4921110;29;20015;-73
2023/05/05 09:49:22;;;;;;;21.30;10.63;;;;;;;18.42;nan;100992.31;4925712;29;20122;-72
2023/05/05 09:51:47;;;;;;;15.90;9.38;;;;;;;18.44;nan;100990.97;4922903;29;20483;-74
2023/05/05 09:54:37;;;;;;;14.70;9.55;;;;;;;18.58;nan;100985.13;4923252;29;20106;-71
2023/05/05 09:57:02;;;;;;;14.23;9.05;;;;;;;18.72;nan;100996.88;4925578;29;20047;-73
2023/05/05 09:59:28;;;;;;;15.27;9.45;;;;;;;18.75;nan;100979.53;4925499;29;20070;-74
2023/05/05 10:02:10;;;;;;;11.00;7.15;;;;;;;18.78;nan;100973.72;4924249;29;20047;-75
2023/05/05 10:04:35;;;;;;;12.30;7.07;;;;;;;18.99;nan;100987.88;4923744;29;20123;-74
2023/05/05 10:07:00;;;;;;;10.43;7.75;;;;;;;18.89;nan;100975.31;4927455;29;20115;-74
2023/05/05 10:09:26;;;;;;;10.00;7.38;;;;;;;18.94;nan;100979.84;4927003;29;20038;-74
2023/05/05 10:11:52;;;;;;;11.13;6.82;;;;;;;19.05;nan;100976.13;4923158;29;20487;-73
2023/05/05 10:14:18;;;;;;;11.13;7.10;;;;;;;19.13;nan;100988.97;4923531;29;20058;-73
2023/05/05 10:16:54;;;;;;;7.88;6.13;;;;;;;19.06;nan;100975.09;4921924;29;20672;-74
2023/05/05 10:19:23;;;;;;;8.73;6.38;;;;;;;19.18;nan;100988.97;4921583;29;20080;-73
2023/05/05 10:21:53;;;;;;;10.02;6.43;;;;;;;19.13;nan;100967.59;4921395;29;20504;-71
2023/05/05 10:24:38;;;;;;;8.50;5.90;;;;;;;19.09;nan;100959.31;4923165;29;20054;-72
2023/05/05 10:27:12;;;;;;;8.60;6.65;;;;;;;19.23;nan;100969.47;4922066;29;20028;-73
2023/05/05 10:29:58;;;;;;;13.55;6.65;;;;;;;19.31;nan;100963.56;4923664;29;20288;-73
2023/05/05 10:32:27;;;;;;;10.43;6.15;;;;;;;19.34;nan;100945.13;4923237;29;20094;-72
2023/05/05 10:34:58;;;;;;;6.85;5.20;;;;;;;19.41;nan;100949.41;4921381;29;20024;-72
2023/05/05 10:37:24;;;;;;;8.18;5.90;;;;;;;19.37;nan;100934.97;4921095;29;20058;-70
2023/05/05 10:39:51;;;;;;;8.48;5.45;;;;;;;19.65;nan;100955.72;4923966;29;20028;-72
2023/05/05 10:42:18;;;;;;;8.95;6.85;;;;;;;19.65;nan;100945.03;4922770;29;20056;-72
2023/05/05 10:44:43;;;;;;;10.70;5.88;;;;;;;19.62;nan;100934.91;4923125;29;20516;-72
2023/05/05 10:47:10;;;;;;;10.20;5.82;;;;;;;19.73;nan;100933.84;4924517;29;20027;-71
2023/05/05 10:49:39;;;;;;;10.85;6.32;;;;;;;19.86;nan;100942.34;4928032;29;20158;-72
2023/05/05 10:52:27;;;;;;;8.43;6.20;;;;;;;19.89;nan;100939.13;4923624;29;20140;-70
2023/05/05 10:55:14;;;;;;;8.93;6.07;;;;;;;19.82;nan;100928.72;4921854;29;20165;-71
2023/05/05 10:57:42;;;;;;;10.52;5.60;;;;;;;19.87;nan;100920.69;4917971;29;20047;-71
2023/05/05 11:00:08;;;;;;;7.20;5.20;;;;;;;19.93;nan;100916.13;4928513;29;20049;-70
2023/05/05 11:02:34;;;;;;;11.02;5.22;;;;;;;20.00;nan;100913.16;4922335;29;20028;-71
2023/05/05 11:05:21;;;;;;;6.72;5.35;;;;;;;20.18;nan;100924.03;4916536;29;20040;-71
2023/05/05 11:07:48;;;;;;;6.47;5.25;;;;;;;20.24;nan;100924.00;4926590;29;20517;-74
2023/05/05 11:10:15;;;;;;;7.97;5.13;;;;;;;20.33;nan;100922.34;4929625;29;20692;-71
2023/05/05 11:13:01;;;;;;;6.07;4.95;;;;;;;20.43;nan;100913.44;4923502;29;20035;-72
2023/05/05 11:15:26;;;;;;;9.85;5.60;;;;;;;20.50;nan;100917.38;4924266;29;20390;-74
2023/05/05 11:17:58;;;;;;;7.13;4.72;;;;;;;20.56;nan;100920.84;4927518;29;20054;-74
2023/05/05 11:20:38;;;;;;;8.57;5.60;;;;;;;20.60;nan;100909.31;4929688;29;20035;-75
2023/05/05 11:23:03;;;;;;;7.22;5.20;;;;;;;20.69;nan;100920.22;4932304;29;20074;-76
2023/05/05 11:25:39;;;;;;;7.38;4.55;;;;;;;20.77;nan;100908.91;4924295;29;20055;-75
2023/05/05 11:28:17;;;;;;;5.50;4.90;;;;;;;20.84;nan;100908.59;4923509;29;20040;-74
2023/05/05 11:30:55;;;;;;;6.40;3.85;;;;;;;20.95;nan;100912.78;4922098;29;20034;-74
2023/05/05 11:33:30;;;;;;;4.25;3.40;;;;;;;20.97;nan;100910.63;4921114;29;20549;-75
2023/05/05 11:35:59;;;;;;;5.70;3.10;;;;;;;21.04;nan;100903.03;4921881;29;20111;-75
2023/05/05 11:39:02;;;;;;;6.10;3.92;;;;;;;21.11;nan;100905.38;4935504;28;20039;-75
2023/05/05 11:42:00;;;;;;;5.43;3.85;;;;;;;21.21;nan;100894.59;4921228;29;20039;-75
2023/05/05 11:44:30;;;;;;;5.60;3.95;;;;;;;21.14;nan;100883.41;4922562;29;20394;-73
2023/05/05 11:46:56;;;;;;;4.85;4.30;;;;;;;21.31;nan;100892.84;4926452;29;20055;-76
2023/05/05 11:49:28;;;;;;;4.03;3.00;;;;;;;21.31;nan;100888.31;4920089;29;20086;-74
2023/05/05 11:52:00;;;;;;;5.28;3.30;;;;;;;21.30;nan;100876.00;4921393;29;20281;-75
2023/05/05 11:54:25;;;;;;;4.28;3.22;;;;;;;21.34;nan;100877.03;4924728;29;20036;-75
2023/05/05 11:56:55;;;;;;;4.78;3.72;;;;;;;21.41;nan;100861.44;4932310;29;20035;-75
2023/05/05 11:59:21;;;;;;;6.95;3.50;;;;;;;21.69;nan;100877.69;4936489;29;20055;-74